Palm Beach International Airport West Palm Beach US
ICAO: KPBI
IATA: PBI
Category: Large
Scheduled Services: Yes

Elevation: 19 ft
TransAlt. 18000 ft.

Airport Communications:
APP:124.6
ASOS:119.975
ATIS:123.75
CLNC DEL:121.6
DEP:127.35
GND:121.9
MIAMI RDO:122.4
TWR:119.1
UNICOM:122.95

KPBI Zoom In..

If you have problems with the map follow the link
https://www.worldairports.se/pages/airport.php?
ICAO=KPBI

Runways:

(A) RW 10L length 10000 ft width 150 ft
ILS 111.90 / hdg 99

(B) RW 10R length 3213 ft width 75 ft
---- / hdg 99

(C) RW 14 length 6931 ft width 150 ft
---- / hdg 141

(D) RW 28L length 3213 ft width 75 ft
---- / hdg 279

(E) RW 28R length 10000 ft width 150 ft
ILS 111.90 / hdg 279

(F) RW 32 length 6931 ft width 150 ft
---- / hdg 321

Location; KPBI
Day. 14 / Time. 14.53 Zulu
* Altimeter: 29.85
* Temperature: 27° c. 80.6°f.
* Wind from: 240° Speed 14 kn.
Dewpoint: 21° c.
Visibility: 10 Statute Miles.
Clouds: Scattered 2000 ft.
Clouds: Scattered 25000 ft.

KPBI 141453Z 24014KT 10SM SCT020 SCT250 27/21 A2985 RMK AO2 SLP106 T02670211 50003


Wind From 240°
Speed 14 kn.

 
 
jpsmedia worldairports.se 2019   terms of use